Stovring, Denmark
Current Conditions -  °F | °C
As of 9:20 PM on Monday 24 Nov 2014 (Local Time) from EKYT Reporting Station
Clear Clear  
Wind Chill: 43°   Ceiling: Unl
Heat Index: 48°   Visibility: 6mi
Dew Point: 41°   Wind: 14mph
Humidity: 76%   Direction: 290°WNW
Pressure: 30.03"   Gusts: NA
Location:  56.89°N, 9.84°E
Report Text: EKYT 242020Z 29012KT CAVOK 09/05 Q1017 NOSIG RMK SKC
Loading
Personal Weather Stations






























Interactive Weather Map New forecast layout! Learn more

10-Day Weather Forecast

Advertisements
Track Severe Weather on mobile